Time;durP1;ratioP1;P1;durP2;ratioP2;P2;SDS_P1;SDS_P2;PMS_P1;PMS_P2;Temp;Humidity;BMP_temperature;BMP_pressure;BME280_temperature;BME280_humidity;BME280_pressure;Samples;Min_cycle;Max_cycle;Signal;HPM_P1;HPM_P2
2023/03/17 00:00:20;;;;;;;36.90;17.95;;;-4.30;99.90;;;;;;4975461;28;20050;-80
2023/03/17 00:02:48;;;;;;;48.42;18.55;;;-4.30;99.90;;;;;;4975051;28;20018;-79
2023/03/17 00:05:19;;;;;;;46.00;18.63;;;-4.30;99.90;;;;;;4975409;28;20077;-80
2023/03/17 00:07:46;;;;;;;51.13;20.65;;;-4.30;99.90;;;;;;4973762;28;20400;-80
2023/03/17 00:10:24;;;;;;;40.67;19.42;;;-4.30;99.90;;;;;;4973738;28;20034;-80
2023/03/17 00:12:52;;;;;;;41.15;20.00;;;-4.40;99.90;;;;;;4974947;28;20045;-80
2023/03/17 00:15:19;;;;;;;37.90;19.63;;;-4.40;99.90;;;;;;4974872;28;20042;-76
2023/03/17 00:17:46;;;;;;;34.53;17.17;;;-4.40;99.90;;;;;;4974857;28;20022;-80
2023/03/17 00:20:26;;;;;;;43.53;21.15;;;-4.40;99.90;;;;;;4974841;28;20380;-77
2023/03/17 00:22:57;;;;;;;42.13;22.63;;;-4.40;99.90;;;;;;4974783;28;20062;-76
2023/03/17 00:25:26;;;;;;;37.80;19.35;;;-4.40;99.90;;;;;;4975046;28;20038;-80
2023/03/17 00:27:52;;;;;;;38.70;18.02;;;-4.40;99.90;;;;;;4974733;28;20090;-79
2023/03/17 00:30:18;;;;;;;36.83;16.25;;;-4.50;99.90;;;;;;4973493;28;20122;-80
2023/03/17 00:32:45;;;;;;;40.30;16.30;;;-4.50;99.90;;;;;;4973629;28;20037;-80
2023/03/17 00:35:16;;;;;;;40.28;15.20;;;-4.50;99.90;;;;;;4973401;28;20026;-76
2023/03/17 00:37:42;;;;;;;27.67;15.40;;;-4.50;99.90;;;;;;4974535;28;20019;-76
2023/03/17 00:40:16;;;;;;;29.52;15.00;;;-4.50;99.90;;;;;;4974721;28;20034;-76
2023/03/17 00:42:41;;;;;;;34.63;15.70;;;-4.50;99.90;;;;;;4973337;28;20034;-76
2023/03/17 00:45:09;;;;;;;34.85;13.80;;;-4.50;99.90;;;;;;4974679;28;20027;-80
2023/03/17 00:47:34;;;;;;;29.30;14.30;;;-4.50;99.90;;;;;;4972963;28;20497;-79
2023/03/17 00:50:00;;;;;;;31.90;15.75;;;-4.50;99.90;;;;;;4974525;28;20106;-79
2023/03/17 00:52:26;;;;;;;42.88;18.48;;;-4.60;99.90;;;;;;4973075;28;20026;-76
2023/03/17 00:54:51;;;;;;;44.10;19.60;;;-4.60;99.90;;;;;;4976062;28;20019;-76
2023/03/17 00:57:17;;;;;;;46.03;19.27;;;-4.60;99.90;;;;;;4979500;28;20027;-80
2023/03/17 00:59:43;;;;;;;41.42;17.48;;;-4.70;99.90;;;;;;4980775;28;20035;-78
2023/03/17 01:02:12;;;;;;;47.80;25.30;;;-4.70;99.90;;;;;;4980758;28;20026;-78
2023/03/17 01:04:39;;;;;;;57.15;27.08;;;-4.70;99.90;;;;;;4979451;28;20106;-76
2023/03/17 01:07:06;;;;;;;45.00;23.58;;;-4.70;99.90;;;;;;4980774;28;20026;-76
2023/03/17 01:09:32;;;;;;;37.88;19.05;;;-4.80;99.90;;;;;;4980786;28;20023;-78
2023/03/17 01:11:59;;;;;;;49.80;22.30;;;-4.80;99.90;;;;;;4979426;28;20150;-77
2023/03/17 01:14:25;;;;;;;41.65;18.17;;;-4.80;99.90;;;;;;4980626;28;20031;-77
2023/03/17 01:16:51;;;;;;;37.67;16.63;;;-4.80;99.90;;;;;;4979346;28;20026;-79
2023/03/17 01:19:17;;;;;;;32.88;15.85;;;-4.90;99.90;;;;;;4979345;28;20069;-78
2023/03/17 01:21:44;;;;;;;30.25;14.82;;;-4.90;99.90;;;;;;4979356;28;20015;-77
2023/03/17 01:24:10;;;;;;;39.10;16.60;;;-4.80;99.90;;;;;;4979385;28;20027;-80
2023/03/17 01:26:36;;;;;;;33.88;15.93;;;-4.90;99.90;;;;;;4980660;28;20110;-76
2023/03/17 01:29:03;;;;;;;40.55;15.57;;;-4.80;99.90;;;;;;4979284;28;20031;-77
2023/03/17 01:31:29;;;;;;;31.45;14.77;;;-4.80;99.90;;;;;;4980496;28;20019;-78
2023/03/17 01:33:54;;;;;;;25.75;13.18;;;-4.90;99.90;;;;;;4980418;28;20049;-76
2023/03/17 01:36:20;;;;;;;30.23;16.23;;;-4.90;99.90;;;;;;4980354;28;20030;-79
2023/03/17 01:38:49;;;;;;;39.70;16.25;;;-4.90;99.90;;;;;;4979152;28;20493;-79
2023/03/17 01:41:19;;;;;;;30.05;16.50;;;-4.90;99.90;;;;;;4980370;28;20385;-77
2023/03/17 01:43:45;;;;;;;34.35;16.67;;;-4.80;99.90;;;;;;4979516;28;20537;-76
2023/03/17 01:46:16;;;;;;;33.72;16.33;;;-4.80;99.90;;;;;;4980486;28;20031;-79
2023/03/17 01:48:45;;;;;;;31.70;15.65;;;-4.80;99.90;;;;;;4980285;28;20078;-79
2023/03/17 01:51:21;;;;;;;29.38;14.25;;;-4.90;99.90;;;;;;4979105;28;20031;-79
2023/03/17 01:53:48;;;;;;;35.22;15.68;;;-4.80;99.90;;;;;;4980377;28;20039;-76
2023/03/17 01:56:15;;;;;;;36.42;16.40;;;-4.80;99.90;;;;;;4979086;28;20015;-77
2023/03/17 01:58:42;;;;;;;42.40;19.33;;;-4.90;99.90;;;;;;4980254;28;20051;-78
2023/03/17 02:01:09;;;;;;;45.28;20.70;;;-4.90;99.90;;;;;;4980235;28;20384;-78
2023/03/17 02:03:35;;;;;;;43.97;22.55;;;-4.90;99.90;;;;;;4979039;28;20370;-76
2023/03/17 02:06:01;;;;;;;45.67;19.42;;;-4.90;99.90;;;;;;4979491;28;20038;-77
2023/03/17 02:08:26;;;;;;;39.53;18.60;;;-5.00;99.90;;;;;;4976952;28;20417;-76
2023/03/17 02:10:55;;;;;;;32.33;17.02;;;-5.00;99.90;;;;;;4975867;28;20141;-76
2023/03/17 02:13:21;;;;;;;67.47;28.90;;;-4.90;99.90;;;;;;4975868;28;20034;-76
2023/03/17 02:15:49;;;;;;;62.83;27.88;;;-5.00;99.90;;;;;;4977049;28;20022;-78
2023/03/17 02:18:16;;;;;;;57.95;27.75;;;-5.10;99.90;;;;;;4976980;28;20101;-78
2023/03/17 02:20:45;;;;;;;62.65;26.27;;;-5.20;99.90;;;;;;4975640;28;20038;-76
2023/03/17 02:23:15;;;;;;;60.28;26.35;;;-5.20;99.90;;;;;;4977241;28;20027;-78
2023/03/17 02:25:44;;;;;;;51.75;21.33;;;-5.20;99.90;;;;;;4975699;28;20025;-76
2023/03/17 02:28:15;;;;;;;43.75;19.63;;;-5.20;99.90;;;;;;4976899;28;20022;-76
2023/03/17 02:30:41;;;;;;;47.42;22.23;;;-5.20;99.90;;;;;;4976756;28;20023;-76
2023/03/17 02:33:08;;;;;;;52.05;26.27;;;-5.20;99.90;;;;;;4975421;28;20039;-76
2023/03/17 02:35:34;;;;;;;33.25;18.10;;;-5.20;99.90;;;;;;4975276;28;20026;-79
2023/03/17 02:38:00;;;;;;;42.00;18.30;;;-5.20;99.90;;;;;;4976862;28;20027;-78
2023/03/17 02:40:26;;;;;;;39.92;19.25;;;-5.20;99.90;;;;;;4975343;28;20038;-76
2023/03/17 02:42:52;;;;;;;35.97;17.08;;;-5.20;99.90;;;;;;4976597;28;20027;-76
2023/03/17 02:45:19;;;;;;;40.28;19.05;;;-5.10;99.90;;;;;;4975336;28;20049;-76
2023/03/17 02:47:46;;;;;;;42.35;17.85;;;-5.10;99.90;;;;;;4976293;28;20070;-78
2023/03/17 02:50:18;;;;;;;41.85;18.08;;;-5.20;99.90;;;;;;4975280;28;20022;-76
2023/03/17 02:52:44;;;;;;;36.50;18.25;;;-5.10;99.90;;;;;;4975132;28;20030;-76
2023/03/17 02:55:09;;;;;;;34.53;18.90;;;-5.10;99.90;;;;;;4976540;28;20027;-76
2023/03/17 02:57:35;;;;;;;39.20;18.27;;;-5.10;99.90;;;;;;4976239;28;20074;-79
2023/03/17 03:00:02;;;;;;;37.35;17.17;;;-5.10;99.90;;;;;;4976307;28;20038;-76
2023/03/17 03:02:27;;;;;;;41.92;20.48;;;-5.10;99.90;;;;;;4974930;28;20432;-76
2023/03/17 03:04:53;;;;;;;36.67;16.77;;;-5.10;99.90;;;;;;4976237;28;20026;-75
2023/03/17 03:07:18;;;;;;;33.70;16.67;;;-5.10;99.90;;;;;;4976069;28;20023;-78
2023/03/17 03:09:44;;;;;;;43.85;19.40;;;-5.00;99.90;;;;;;4976044;28;20393;-78
2023/03/17 03:12:10;;;;;;;37.55;18.63;;;-5.00;99.90;;;;;;4976218;28;20146;-78
2023/03/17 03:14:36;;;;;;;32.22;18.55;;;-5.00;99.90;;;;;;4975998;28;20034;-76
2023/03/17 03:17:03;;;;;;;34.97;17.80;;;-4.90;99.90;;;;;;4975995;28;20161;-77
2023/03/17 03:19:28;;;;;;;29.95;17.90;;;-4.90;99.90;;;;;;4973674;28;20019;-80
2023/03/17 03:21:54;;;;;;;35.15;18.27;;;-5.00;99.90;;;;;;4974519;28;20027;-80
2023/03/17 03:24:20;;;;;;;36.13;17.30;;;-5.00;99.90;;;;;;4974482;28;20408;-77
2023/03/17 03:26:46;;;;;;;41.20;18.65;;;-4.90;99.90;;;;;;4974397;28;20023;-77
2023/03/17 03:29:11;;;;;;;44.33;22.35;;;-4.90;99.90;;;;;;4975783;28;20027;-77
2023/03/17 03:31:37;;;;;;;39.35;20.45;;;-4.90;99.90;;;;;;4975650;28;20035;-80
2023/03/17 03:34:03;;;;;;;44.88;23.23;;;-5.00;99.90;;;;;;4975588;28;20062;-80
2023/03/17 03:36:28;;;;;;;47.00;23.38;;;-5.00;99.90;;;;;;4974276;28;20022;-77
2023/03/17 03:38:54;;;;;;;48.60;21.52;;;-4.90;99.90;;;;;;4975805;28;20085;-81
2023/03/17 03:41:20;;;;;;;41.78;24.20;;;-5.00;99.90;;;;;;4974108;28;20130;-77
2023/03/17 03:43:45;;;;;;;75.88;36.25;;;-5.10;99.90;;;;;;4974175;28;20027;-80
2023/03/17 03:46:11;;;;;;;46.83;22.33;;;-5.20;99.90;;;;;;4974249;28;20384;-80
2023/03/17 03:48:37;;;;;;;55.00;25.08;;;-5.10;99.90;;;;;;4974147;28;20066;-77
2023/03/17 03:51:03;;;;;;;61.78;25.30;;;-5.20;99.90;;;;;;4974256;28;20065;-77
2023/03/17 03:53:29;;;;;;;52.65;22.67;;;-5.20;99.90;;;;;;4973904;28;20037;-77
2023/03/17 03:55:55;;;;;;;42.60;20.45;;;-5.20;99.90;;;;;;4975198;28;20015;-77
2023/03/17 03:58:21;;;;;;;34.25;18.67;;;-5.20;99.90;;;;;;4975312;28;20110;-77
2023/03/17 04:00:47;;;;;;;35.70;15.90;;;-5.20;99.90;;;;;;4973925;28;20114;-77
2023/03/17 04:03:13;;;;;;;36.38;16.48;;;-5.10;99.90;;;;;;4975322;28;20476;-78
2023/03/17 04:05:39;;;;;;;32.63;18.13;;;-5.00;99.90;;;;;;4975063;28;20392;-77
2023/03/17 04:08:05;;;;;;;41.58;18.58;;;-4.90;99.90;;;;;;4973916;28;20069;-78
2023/03/17 04:10:31;;;;;;;91.63;32.92;;;-4.90;99.90;;;;;;4973579;28;20044;-76
2023/03/17 04:12:57;;;;;;;248.63;80.40;;;-4.90;99.90;;;;;;4974839;28;20095;-77
2023/03/17 04:15:23;;;;;;;111.50;41.45;;;-4.90;99.90;;;;;;4974540;28;20031;-76
2023/03/17 04:17:49;;;;;;;87.78;32.85;;;-4.90;99.90;;;;;;4974901;28;20018;-76
2023/03/17 04:20:15;;;;;;;125.03;43.33;;;-4.90;99.90;;;;;;4974903;28;20110;-78
2023/03/17 04:22:42;;;;;;;94.05;33.22;;;-5.00;99.90;;;;;;4974808;28;20043;-78
2023/03/17 04:25:09;;;;;;;80.70;31.92;;;-5.00;99.90;;;;;;4974780;28;20102;-78
2023/03/17 04:27:35;;;;;;;72.65;29.85;;;-5.00;99.90;;;;;;4973648;28;20070;-76
2023/03/17 04:30:01;;;;;;;69.40;26.08;;;-5.00;99.90;;;;;;4973138;28;20392;-78
2023/03/17 04:32:26;;;;;;;50.47;23.02;;;-4.90;99.90;;;;;;4974705;28;20384;-80
2023/03/17 04:34:52;;;;;;;42.50;19.27;;;-4.90;99.90;;;;;;4973347;28;20081;-77
2023/03/17 04:37:18;;;;;;;49.70;17.80;;;-4.70;99.90;;;;;;4973523;28;20049;-81
2023/03/17 04:39:43;;;;;;;43.40;16.60;;;-4.60;99.90;;;;;;4973350;28;20030;-78
2023/03/17 04:42:10;;;;;;;37.95;17.38;;;-4.40;99.90;;;;;;4974635;28;20106;-80
2023/03/17 04:44:35;;;;;;;32.92;16.48;;;-4.20;99.90;;;;;;4988936;28;20073;-80
2023/03/17 04:47:01;;;;;;;33.90;17.42;;;-4.00;99.90;;;;;;4992519;28;20030;-80
2023/03/17 04:49:27;;;;;;;27.75;15.68;;;-3.90;99.90;;;;;;4992481;28;20046;-78
2023/03/17 04:51:53;;;;;;;30.73;15.93;;;-3.70;99.90;;;;;;4993900;28;20046;-77
2023/03/17 04:54:19;;;;;;;32.75;15.85;;;-3.70;99.90;;;;;;4993777;28;20084;-79
2023/03/17 04:56:44;;;;;;;31.75;15.73;;;-3.60;99.90;;;;;;4993775;28;20053;-77
2023/03/17 04:59:10;;;;;;;34.72;14.95;;;-3.60;99.90;;;;;;4993749;28;20022;-78
2023/03/17 05:01:36;;;;;;;31.33;15.98;;;-3.60;99.90;;;;;;4992501;28;20034;-77
2023/03/17 05:04:02;;;;;;;30.77;16.08;;;-3.70;99.90;;;;;;4992497;28;20062;-77
2023/03/17 05:06:28;;;;;;;28.48;15.25;;;-3.70;99.90;;;;;;4992452;28;20094;-78
2023/03/17 05:08:54;;;;;;;32.33;15.20;;;-3.70;99.90;;;;;;4992349;28;20421;-82
2023/03/17 05:11:19;;;;;;;31.92;16.05;;;-3.70;99.90;;;;;;4992375;28;20108;-81
2023/03/17 05:13:45;;;;;;;32.55;14.20;;;-3.60;99.90;;;;;;4992379;28;20038;-82
2023/03/17 05:16:11;;;;;;;32.42;16.42;;;-3.60;99.90;;;;;;4993638;28;20050;-82
2023/03/17 05:18:37;;;;;;;32.25;16.00;;;-3.50;99.90;;;;;;4992322;28;20500;-82
2023/03/17 05:21:06;;;;;;;26.77;15.35;;;-3.50;99.90;;;;;;4992287;28;20082;-78
2023/03/17 05:23:32;;;;;;;25.50;15.43;;;-3.40;99.90;;;;;;4992244;28;20023;-81
2023/03/17 05:25:58;;;;;;;31.48;15.48;;;-3.30;99.90;;;;;;4992168;28;20027;-82
2023/03/17 05:28:23;;;;;;;33.80;15.45;;;-3.20;99.90;;;;;;4992231;28;20077;-82
2023/03/17 05:30:49;;;;;;;27.40;15.10;;;-3.10;99.90;;;;;;4993535;28;20431;-78
2023/03/17 05:33:15;;;;;;;35.45;15.32;;;-3.00;99.90;;;;;;4992210;28;20497;-82
2023/03/17 05:35:42;;;;;;;24.02;14.55;;;-2.90;99.90;;;;;;4991933;28;20019;-77
2023/03/17 05:38:11;;;;;;;24.98;14.85;;;-2.80;99.90;;;;;;4992293;28;20026;-82
2023/03/17 05:40:36;;;;;;;24.10;14.15;;;-2.80;99.90;;;;;;4992066;28;20027;-82
2023/03/17 05:43:04;;;;;;;24.83;13.32;;;-2.70;99.90;;;;;;4994898;28;20122;-80
2023/03/17 05:45:32;;;;;;;32.83;14.25;;;-2.60;99.90;;;;;;4995765;28;20117;-77
2023/03/17 05:47:57;;;;;;;28.98;14.52;;;-2.50;99.90;;;;;;4996812;28;20542;-77
2023/03/17 05:50:23;;;;;;;27.65;14.02;;;-2.40;99.90;;;;;;4996986;28;20050;-78
2023/03/17 05:52:51;;;;;;;27.20;13.85;;;-2.30;99.90;;;;;;4996825;28;20030;-79
2023/03/17 05:55:17;;;;;;;25.83;13.93;;;-2.10;99.90;;;;;;4996940;28;20105;-83
2023/03/17 05:57:43;;;;;;;27.98;13.05;;;-2.00;99.90;;;;;;4995968;28;20380;-77
2023/03/17 06:00:10;;;;;;;26.48;12.82;;;-1.80;99.90;;;;;;4991565;28;20030;-77
2023/03/17 06:02:36;;;;;;;27.25;13.68;;;-1.70;99.90;;;;;;4980136;28;20354;-81
2023/03/17 06:05:02;;;;;;;31.60;13.27;;;-1.50;99.90;;;;;;4983305;28;20034;-81
2023/03/17 06:07:28;;;;;;;26.17;13.77;;;-1.40;99.90;;;;;;4979691;28;20023;-80
2023/03/17 06:09:54;;;;;;;19.15;11.55;;;-1.20;99.90;;;;;;4985113;28;20023;-78
2023/03/17 06:12:20;;;;;;;28.20;12.48;;;-1.10;98.00;;;;;;4986741;28;20046;-80
2023/03/17 06:14:46;;;;;;;26.73;12.13;;;-0.90;97.10;;;;;;4975489;28;20066;-77
2023/03/17 06:17:11;;;;;;;28.70;14.05;;;-0.70;95.10;;;;;;4975760;28;20034;-77
2023/03/17 06:19:37;;;;;;;25.88;12.52;;;-0.60;91.70;;;;;;4977050;28;20437;-79
2023/03/17 06:22:03;;;;;;;19.90;11.20;;;-0.40;90.30;;;;;;4975767;28;20147;-79
2023/03/17 06:24:29;;;;;;;26.33;12.23;;;-0.20;90.30;;;;;;4976968;28;20038;-80
2023/03/17 06:26:54;;;;;;;20.65;11.05;;;-0.10;87.60;;;;;;4975036;28;20023;-78
2023/03/17 06:29:20;;;;;;;21.00;11.57;;;0.10;86.40;;;;;;4981071;28;20077;-76
2023/03/17 06:31:49;;;;;;;22.30;11.05;;;0.20;82.40;;;;;;4984360;28;20019;-77
2023/03/17 06:34:19;;;;;;;21.10;12.32;;;0.30;81.70;;;;;;4980684;28;20380;-80
2023/03/17 06:36:45;;;;;;;23.67;12.30;;;0.50;80.60;;;;;;4994761;28;20049;-79
2023/03/17 06:39:12;;;;;;;21.98;10.90;;;0.60;79.00;;;;;;4994811;28;20464;-80
2023/03/17 06:41:37;;;;;;;23.30;11.43;;;0.70;78.20;;;;;;4982823;28;20113;-80
2023/03/17 06:44:06;;;;;;;24.45;11.63;;;0.80;77.40;;;;;;4975233;28;20030;-77
2023/03/17 06:46:32;;;;;;;29.00;12.15;;;1.00;76.80;;;;;;4975048;28;20019;-80
2023/03/17 06:48:58;;;;;;;20.67;12.65;;;1.10;76.70;;;;;;4974264;28;20093;-79
2023/03/17 06:51:24;;;;;;;21.73;11.40;;;1.20;76.60;;;;;;4972437;28;20532;-79
2023/03/17 06:53:50;;;;;;;22.00;11.40;;;1.40;75.50;;;;;;4972421;28;20097;-80
2023/03/17 06:56:15;;;;;;;24.08;11.57;;;1.50;74.40;;;;;;4974219;28;20494;-78
2023/03/17 06:58:41;;;;;;;16.77;10.40;;;1.60;73.50;;;;;;4974260;28;20058;-78
2023/03/17 07:01:07;;;;;;;23.83;11.18;;;1.70;73.10;;;;;;4974396;28;20047;-77
2023/03/17 07:03:34;;;;;;;20.23;10.63;;;1.80;72.50;;;;;;4972948;28;20094;-77
2023/03/17 07:06:00;;;;;;;18.88;10.45;;;2.00;72.30;;;;;;4975348;28;20106;-78
2023/03/17 07:08:29;;;;;;;20.77;10.85;;;2.10;71.60;;;;;;4976033;28;20434;-77
2023/03/17 07:10:56;;;;;;;15.85;10.07;;;2.20;70.30;;;;;;4973993;28;20061;-80
2023/03/17 07:13:22;;;;;;;20.45;10.75;;;2.40;69.90;;;;;;4972683;28;20074;-78
2023/03/17 07:15:48;;;;;;;20.05;10.57;;;2.50;70.10;;;;;;4973913;28;20417;-78
2023/03/17 07:18:15;;;;;;;17.67;9.70;;;2.60;69.60;;;;;;4973838;28;20037;-77
2023/03/17 07:20:41;;;;;;;20.83;10.90;;;2.70;68.30;;;;;;4972437;28;20439;-80
2023/03/17 07:23:13;;;;;;;19.05;10.35;;;2.90;67.70;;;;;;4972512;28;20025;-80
2023/03/17 07:25:42;;;;;;;15.38;8.77;;;3.00;67.20;;;;;;4973877;28;20027;-77
2023/03/17 07:28:08;;;;;;;18.73;8.73;;;3.20;66.10;;;;;;4974492;28;20052;-78
2023/03/17 07:30:34;;;;;;;15.15;8.82;;;3.30;65.50;;;;;;4974185;28;20424;-77
2023/03/17 07:33:00;;;;;;;14.23;8.60;;;3.50;64.90;;;;;;4974195;28;20035;-80
2023/03/17 07:35:27;;;;;;;17.05;10.18;;;3.60;63.90;;;;;;4974690;28;20026;-77
2023/03/17 07:37:53;;;;;;;15.70;8.13;;;3.80;63.00;;;;;;4975574;28;20069;-77
2023/03/17 07:40:18;;;;;;;14.82;7.28;;;3.90;62.20;;;;;;4974332;28;20473;-80
2023/03/17 07:42:44;;;;;;;16.85;7.65;;;4.00;61.30;;;;;;4975535;28;20046;-79
2023/03/17 07:45:10;;;;;;;16.90;7.53;;;4.10;60.40;;;;;;4975522;28;20443;-77
2023/03/17 07:47:36;;;;;;;12.60;7.32;;;4.30;59.00;;;;;;4975372;28;20047;-78
2023/03/17 07:50:02;;;;;;;14.30;7.88;;;4.40;59.30;;;;;;4974326;28;20118;-78
2023/03/17 07:52:27;;;;;;;10.32;6.30;;;4.60;58.60;;;;;;4974102;28;20026;-79
2023/03/17 07:54:54;;;;;;;11.48;6.78;;;4.70;57.00;;;;;;4974046;28;20030;-80
2023/03/17 07:57:20;;;;;;;12.32;6.35;;;4.80;56.20;;;;;;4975208;28;20036;-79
2023/03/17 07:59:46;;;;;;;14.07;7.43;;;4.90;56.80;;;;;;4975290;28;20026;-78
2023/03/17 08:02:16;;;;;;;45.80;21.23;;;5.00;54.60;;;;;;4975262;28;20097;-78
2023/03/17 08:04:42;;;;;;;18.52;8.10;;;5.10;53.20;;;;;;4974677;28;20106;-78
2023/03/17 08:07:07;;;;;;;11.07;5.72;;;5.30;51.90;;;;;;4973768;28;20074;-78
2023/03/17 08:09:33;;;;;;;35.63;19.10;;;5.40;50.60;;;;;;4974970;28;20034;-78
2023/03/17 08:11:58;;;;;;;24.05;11.88;;;5.50;50.70;;;;;;4974855;28;20388;-80
2023/03/17 08:14:24;;;;;;;13.63;7.97;;;5.60;50.40;;;;;;4973859;28;20038;-79
2023/03/17 08:16:50;;;;;;;10.82;7.50;;;5.70;50.60;;;;;;4971830;28;20034;-79
2023/03/17 08:19:15;;;;;;;11.63;5.57;;;5.90;49.00;;;;;;4974077;28;20027;-79
2023/03/17 08:21:41;;;;;;;7.80;4.30;;;5.90;47.90;;;;;;4980843;28;20030;-79
2023/03/17 08:24:07;;;;;;;11.73;6.30;;;5.90;47.30;;;;;;4972956;28;20031;-79
2023/03/17 08:26:33;;;;;;;9.65;5.07;;;5.90;47.50;;;;;;4988732;28;20469;-79
2023/03/17 08:28:58;;;;;;;15.40;5.75;;;6.00;46.60;;;;;;4984423;28;20105;-79
2023/03/17 08:31:24;;;;;;;15.30;5.68;;;6.10;47.30;;;;;;4993748;28;20030;-79
2023/03/17 08:33:52;;;;;;;8.30;4.82;;;6.20;46.00;;;;;;4990876;28;20034;-79
2023/03/17 08:36:18;;;;;;;11.93;5.03;;;6.30;44.80;;;;;;4991648;28;20022;-78
2023/03/17 08:38:45;;;;;;;8.02;4.38;;;6.40;45.40;;;;;;4994027;28;20073;-78
2023/03/17 08:41:14;;;;;;;9.23;4.38;;;6.50;45.90;;;;;;4993914;28;20022;-79
2023/03/17 08:43:41;;;;;;;8.02;4.65;;;6.60;44.00;;;;;;4992925;28;20032;-78
2023/03/17 08:46:13;;;;;;;7.15;3.90;;;6.70;44.60;;;;;;4991066;28;20019;-78
2023/03/17 08:48:40;;;;;;;7.03;3.72;;;6.80;44.40;;;;;;4990724;28;20046;-78
2023/03/17 08:51:07;;;;;;;7.35;4.03;;;6.80;43.00;;;;;;4973246;28;20389;-78
2023/03/17 08:53:33;;;;;;;12.68;4.35;;;6.90;42.40;;;;;;4970383;28;20062;-79
2023/03/17 08:56:00;;;;;;;8.68;4.15;;;6.90;42.80;;;;;;4969548;28;20158;-78
2023/03/17 08:58:26;;;;;;;7.10;4.20;;;7.00;43.40;;;;;;4971243;28;20031;-80
2023/03/17 09:00:52;;;;;;;7.30;4.20;;;7.00;42.40;;;;;;4970168;28;20042;-79
2023/03/17 09:03:19;;;;;;;9.23;5.47;;;7.00;43.60;;;;;;4973747;28;20019;-79
2023/03/17 09:05:46;;;;;;;7.35;5.18;;;7.10;43.90;;;;;;4974391;28;20158;-78
2023/03/17 09:08:11;;;;;;;12.13;5.93;;;7.20;43.90;;;;;;4973267;28;20082;-79
2023/03/17 09:10:37;;;;;;;11.20;5.10;;;7.30;42.50;;;;;;4973057;28;20493;-78
2023/03/17 09:13:04;;;;;;;7.28;4.75;;;7.30;41.80;;;;;;4973018;28;20022;-79
2023/03/17 09:15:31;;;;;;;12.18;4.57;;;7.40;42.20;;;;;;4973473;28;20023;-79
2023/03/17 09:17:57;;;;;;;7.90;4.88;;;7.60;43.30;;;;;;4976969;28;20019;-78
2023/03/17 09:20:22;;;;;;;9.30;4.57;;;7.70;43.70;;;;;;4978129;28;20069;-79
2023/03/17 09:22:48;;;;;;;6.90;4.70;;;7.70;43.20;;;;;;4976883;28;20472;-78
2023/03/17 09:25:15;;;;;;;8.32;4.10;;;7.80;43.00;;;;;;4978574;28;20035;-78
2023/03/17 09:27:40;;;;;;;9.20;4.70;;;7.80;41.30;;;;;;4976966;28;20117;-79
2023/03/17 09:30:09;;;;;;;6.88;4.30;;;7.90;40.90;;;;;;4978077;28;20106;-78
2023/03/17 09:32:35;;;;;;;9.30;3.70;;;8.00;41.10;;;;;;4976543;28;20026;-80
2023/03/17 09:35:00;;;;;;;7.43;3.65;;;7.90;39.90;;;;;;4976653;28;20027;-79
2023/03/17 09:37:26;;;;;;;7.57;3.28;;;8.00;39.50;;;;;;4976858;28;20354;-79
2023/03/17 09:39:52;;;;;;;8.82;3.70;;;8.00;38.40;;;;;;4976586;28;20027;-79
2023/03/17 09:42:33;;;;;;;4.18;3.70;;;8.00;39.90;;;;;;4976538;28;20027;-79
2023/03/17 09:45:22;;;;;;;7.55;4.50;;;7.90;38.00;;;;;;4976476;28;20499;-79
2023/03/17 09:48:07;;;;;;;6.13;3.78;;;8.00;39.30;;;;;;4976266;28;20058;-80
2023/03/17 09:50:47;;;;;;;11.88;5.82;;;8.00;39.40;;;;;;4976715;28;20027;-79
2023/03/17 09:53:21;;;;;;;8.82;4.93;;;8.10;40.60;;;;;;4977649;28;20035;-79
2023/03/17 09:55:51;;;;;;;8.02;4.60;;;8.10;41.10;;;;;;4977923;28;20074;-79
2023/03/17 09:58:24;;;;;;;9.65;4.53;;;8.20;40.80;;;;;;4976691;28;20019;-79
2023/03/17 10:00:50;;;;;;;7.65;4.90;;;8.20;42.50;;;;;;4976566;28;20469;-79
2023/03/17 10:03:17;;;;;;;9.98;4.93;;;8.20;42.30;;;;;;4977337;28;20385;-80
2023/03/17 10:05:43;;;;;;;11.82;4.40;;;8.20;42.90;;;;;;4976242;28;20481;-79
2023/03/17 10:08:19;;;;;;;5.72;4.28;;;8.40;42.10;;;;;;4976180;28;20019;-80
2023/03/17 10:11:01;;;;;;;8.88;4.35;;;8.30;40.70;;;;;;4976019;28;20062;-79
2023/03/17 10:13:47;;;;;;;10.93;5.40;;;8.20;42.20;;;;;;4977169;28;20026;-79
2023/03/17 10:16:35;;;;;;;6.65;4.10;;;8.20;43.10;;;;;;4977276;28;20477;-79
2023/03/17 10:19:39;;;;;;;5.95;4.32;;;8.30;43.70;;;;;;4976014;28;20030;-80
2023/03/17 10:22:22;;;;;;;7.60;4.75;;;8.20;43.20;;;;;;4991269;28;20043;-79
2023/03/17 10:24:50;;;;;;;;;;;8.20;43.10;;;;;;4977715;28;20038;-80
2023/03/17 10:27:16;;;;;;;8.52;5.18;;;8.10;41.30;;;;;;4976340;28;20338;-79
2023/03/17 10:29:43;;;;;;;16.42;9.18;;;8.20;42.80;;;;;;4976764;28;20061;-79
2023/03/17 10:32:11;;;;;;;9.48;4.82;;;8.20;43.60;;;;;;4975508;28;20054;-80
2023/03/17 10:34:38;;;;;;;8.23;4.82;;;8.10;42.70;;;;;;4976982;28;20551;-80
2023/03/17 10:37:18;;;;;;;10.15;6.38;;;8.10;41.60;;;;;;4975437;28;20019;-79
2023/03/17 10:39:49;;;;;;;9.27;5.32;;;8.10;42.70;;;;;;4961412;28;20506;-79
2023/03/17 10:42:23;;;;;;;60.22;25.63;;;8.20;42.20;;;;;;4977077;28;20027;-80
2023/03/17 10:44:51;;;;;;;152.82;60.80;;;8.30;42.80;;;;;;4975512;28;20444;-80
2023/03/17 10:47:21;;;;;;;35.08;14.98;;;8.40;43.40;;;;;;4976425;28;20105;-79
2023/03/17 10:49:47;;;;;;;12.85;6.55;;;8.50;42.80;;;;;;4975722;28;20054;-80
2023/03/17 10:52:21;;;;;;;7.38;4.85;;;8.40;41.90;;;;;;4976855;28;20155;-79
2023/03/17 10:54:50;;;;;;;11.10;5.55;;;8.40;40.90;;;;;;4976446;28;20089;-79
2023/03/17 10:57:17;;;;;;;82.97;37.25;;;8.60;43.00;;;;;;4976376;28;20023;-80
2023/03/17 10:59:51;;;;;;;63.88;30.00;;;8.70;42.60;;;;;;4975119;28;20029;-79
2023/03/17 11:02:22;;;;;;;12.95;7.20;;;8.70;41.90;;;;;;4975429;28;20026;-79
2023/03/17 11:04:48;;;;;;;12.77;6.85;;;8.80;41.90;;;;;;4976255;28;20038;-79
2023/03/17 11:07:19;;;;;;;15.65;7.75;;;8.80;41.30;;;;;;4976595;28;20113;-79
2023/03/17 11:09:49;;;;;;;9.88;6.20;;;8.80;40.40;;;;;;4975239;28;20396;-80
2023/03/17 11:12:38;;;;;;;9.75;5.57;;;8.90;40.60;;;;;;4975266;28;20467;-79
2023/03/17 11:15:16;;;;;;;11.90;5.57;;;8.70;40.50;;;;;;4975140;28;20117;-79
2023/03/17 11:17:50;;;;;;;10.23;6.95;;;8.80;40.10;;;;;;4976118;28;20082;-79
2023/03/17 11:20:43;;;;;;;14.10;6.68;;;8.80;39.90;;;;;;4976187;28;20023;-79
2023/03/17 11:23:27;;;;;;;15.23;6.95;;;8.80;40.60;;;;;;4976343;28;20104;-80
2023/03/17 11:26:23;;;;;;;12.73;5.30;;;8.90;40.90;;;;;;4974888;28;20519;-80
2023/03/17 11:28:56;;;;;;;14.75;6.40;;;8.90;39.70;;;;;;4975746;28;20130;-79
2023/03/17 11:31:48;;;;;;;11.93;5.10;;;9.00;41.30;;;;;;4975911;28;20027;-79
2023/03/17 11:34:29;;;;;;;12.65;5.75;;;8.80;39.50;;;;;;4977081;28;20029;-79
2023/03/17 11:37:05;;;;;;;15.40;6.90;;;8.80;39.60;;;;;;4974524;28;20045;-79
2023/03/17 11:39:43;;;;;;;14.80;7.25;;;8.90;39.80;;;;;;4973461;28;20079;-79
2023/03/17 11:42:19;;;;;;;10.65;5.57;;;9.00;39.80;;;;;;4974508;28;20035;-78
2023/03/17 11:45:14;;;;;;;15.80;9.07;;;9.10;39.80;;;;;;4974519;28;20019;-78
2023/03/17 11:47:49;;;;;;;14.18;5.75;;;9.20;40.40;;;;;;4974038;28;20580;-79
2023/03/17 11:50:29;;;;;;;12.95;6.03;;;9.10;40.20;;;;;;4974364;28;20027;-78
2023/03/17 11:53:04;;;;;;;10.20;5.63;;;9.00;40.80;;;;;;4972852;28;20031;-79
2023/03/17 11:55:41;;;;;;;16.85;9.15;;;9.10;41.50;;;;;;4973855;28;20033;-78
2023/03/17 11:58:14;;;;;;;23.35;8.30;;;9.20;40.10;;;;;;4974419;28;20090;-79
2023/03/17 12:00:51;;;;;;;47.55;20.08;;;9.20;39.00;;;;;;4973973;28;20023;-78
2023/03/17 12:03:27;;;;;;;12.70;7.80;;;9.30;39.00;;;;;;4975377;28;20074;-78
2023/03/17 12:05:59;;;;;;;12.85;7.55;;;9.30;39.50;;;;;;4975471;28;20023;-80
2023/03/17 12:08:44;;;;;;;72.68;40.30;;;9.30;39.60;;;;;;4973902;28;20027;-79
2023/03/17 12:11:19;;;;;;;41.88;23.38;;;9.40;39.30;;;;;;4974113;28;20035;-78
2023/03/17 12:13:50;;;;;;;20.50;9.32;;;9.50;38.90;;;;;;4974158;28;20031;-79
2023/03/17 12:16:32;;;;;;;12.57;6.85;;;9.50;40.00;;;;;;4975105;28;20033;-80
2023/03/17 12:19:10;;;;;;;63.85;31.48;;;9.40;39.80;;;;;;4973878;28;20105;-79
2023/03/17 12:21:55;;;;;;;27.58;15.70;;;9.50;41.30;;;;;;4974884;28;20066;-79
2023/03/17 12:24:44;;;;;;;16.63;9.18;;;9.50;41.40;;;;;;4973853;28;20038;-78
2023/03/17 12:27:18;;;;;;;57.33;28.95;;;9.50;40.90;;;;;;4975130;28;20027;-79
2023/03/17 12:30:06;;;;;;;9.05;6.47;;;9.50;41.20;;;;;;4974883;28;20023;-79
2023/03/17 12:32:52;;;;;;;15.57;7.05;;;9.40;39.60;;;;;;4989413;28;20034;-79
2023/03/17 12:35:30;;;;;;;33.00;14.07;;;9.40;40.20;;;;;;4974693;28;20104;-79
2023/03/17 12:37:59;;;;;;;63.40;28.65;;;9.50;39.80;;;;;;4974597;28;20023;-79
2023/03/17 12:40:53;;;;;;;21.48;10.88;;;9.60;40.20;;;;;;4973520;28;20019;-78
2023/03/17 12:43:54;;;;;;;39.40;17.58;;;9.70;39.90;;;;;;4970881;28;20043;-79